Time;durP1;ratioP1;P1;durP2;ratioP2;P2;SDS_P1;SDS_P2;PMS_P1;PMS_P2;Temp;Humidity;BMP_temperature;BMP_pressure;BME280_temperature;BME280_humidity;BME280_pressure;Samples;Min_cycle;Max_cycle;Signal;HPM_P1;HPM_P2
2022/08/24 00:02:11;;;;;;;14.30;10.80;;;26.80;71.00;;;;;;4988754;28;20034;-84
2022/08/24 00:04:37;;;;;;;11.68;10.45;;;26.70;70.70;;;;;;4976734;28;20026;-87
2022/08/24 00:07:03;;;;;;;11.32;10.15;;;26.80;70.60;;;;;;4989337;28;20027;-87
2022/08/24 00:09:31;;;;;;;11.68;10.45;;;26.90;70.20;;;;;;4988929;28;20057;-81
2022/08/24 00:11:57;;;;;;;13.00;10.35;;;27.00;70.20;;;;;;4982289;28;20026;-87
2022/08/24 00:14:23;;;;;;;13.13;11.00;;;27.00;69.80;;;;;;4994179;28;20098;-90
2022/08/24 00:16:49;;;;;;;14.63;11.68;;;27.10;70.00;;;;;;4986542;28;20070;-80
2022/08/24 00:19:15;;;;;;;14.02;11.63;;;27.00;69.90;;;;;;4974019;28;20035;-86
2022/08/24 00:21:41;;;;;;;13.88;10.45;;;26.90;70.20;;;;;;4989545;28;20042;-86
2022/08/24 00:24:07;;;;;;;12.48;10.95;;;26.90;70.10;;;;;;4993529;28;20088;-82
2022/08/24 00:26:34;;;;;;;11.77;10.43;;;26.90;70.30;;;;;;4991875;28;20022;-86
2022/08/24 00:29:00;;;;;;;13.68;11.38;;;27.10;69.50;;;;;;4993315;28;20049;-88
2022/08/24 00:31:26;;;;;;;13.90;11.38;;;27.20;69.20;;;;;;4993271;28;20053;-86
2022/08/24 00:33:52;;;;;;;14.85;11.07;;;27.30;69.00;;;;;;4979107;28;20485;-87
2022/08/24 00:36:20;;;;;;;12.70;11.07;;;27.00;70.10;;;;;;4980096;28;20035;-88
2022/08/24 00:38:46;;;;;;;13.15;11.20;;;26.90;70.00;;;;;;4996986;28;20026;-83
2022/08/24 00:41:14;;;;;;;13.43;11.80;;;26.80;70.00;;;;;;4991886;28;20043;-83
2022/08/24 00:43:50;;;;;;;13.70;12.00;;;26.80;69.80;;;;;;4990790;28;20481;-87
2022/08/24 00:46:23;;;;;;;14.27;12.57;;;26.80;69.80;;;;;;4992565;28;20496;-83
2022/08/24 00:48:58;;;;;;;15.70;11.85;;;26.90;69.80;;;;;;4988106;28;20252;-84
2022/08/24 00:51:31;;;;;;;16.08;12.23;;;27.10;69.50;;;;;;4996372;28;20018;-83
2022/08/24 00:54:11;;;;;;;12.80;10.68;;;26.90;69.80;;;;;;4995959;28;20437;-90
2022/08/24 00:56:59;;;;;;;13.13;11.13;;;27.00;69.70;;;;;;4979198;28;20041;-83
2022/08/24 00:59:31;;;;;;;15.50;11.70;;;27.10;69.60;;;;;;4995698;28;20022;-82
2022/08/24 01:01:58;;;;;;;13.43;11.45;;;27.00;69.90;;;;;;4994837;28;20042;-83
2022/08/24 01:04:34;;;;;;;16.17;12.10;;;27.00;70.00;;;;;;4987615;28;20022;-83
2022/08/24 01:07:00;;;;;;;13.77;11.80;;;27.10;69.60;;;;;;4967748;28;20033;-85
2022/08/24 01:09:25;;;;;;;15.85;12.48;;;27.10;69.50;;;;;;4995572;28;20101;-82
2022/08/24 01:11:51;;;;;;;14.48;12.95;;;27.10;69.70;;;;;;4991490;28;20121;-87
2022/08/24 01:14:20;;;;;;;14.10;12.60;;;27.00;70.00;;;;;;4980205;28;20038;-82
2022/08/24 01:19:37;;;;;;;15.35;13.38;;;26.70;70.50;;;;;;4977586;28;20620;-79
2022/08/24 01:22:47;;;;;;;14.90;11.85;;;26.70;70.50;;;;;;4993540;28;20030;-85
2022/08/24 01:25:14;;;;;;;18.05;13.13;;;26.90;70.40;;;;;;4932765;28;20036;-89
2022/08/24 01:27:41;;;;;;;15.05;12.70;;;27.10;69.90;;;;;;4921816;29;20024;-82
2022/08/24 01:30:12;;;;;;;15.43;13.65;;;27.10;69.60;;;;;;4919911;29;20084;-87
2022/08/24 01:32:39;;;;;;;14.88;13.07;;;27.30;69.20;;;;;;4911880;29;20497;-82
2022/08/24 01:35:06;;;;;;;16.98;13.35;;;27.10;69.30;;;;;;4921491;29;20040;-82
2022/08/24 01:37:32;;;;;;;15.73;12.27;;;27.10;69.50;;;;;;4922174;29;20137;-85
2022/08/24 01:40:02;;;;;;;17.50;12.88;;;26.90;69.80;;;;;;4920795;29;20036;-79
2022/08/24 01:42:28;;;;;;;17.95;13.25;;;27.00;69.70;;;;;;4935870;29;20439;-81
2022/08/24 01:44:55;;;;;;;15.70;12.40;;;26.90;70.10;;;;;;4919312;29;20143;-81
2022/08/24 01:47:21;;;;;;;14.68;12.52;;;26.60;70.90;;;;;;4920046;29;20036;-81
2022/08/24 01:49:48;;;;;;;17.75;14.07;;;26.50;71.00;;;;;;4919096;29;20044;-87
2022/08/24 01:52:20;;;;;;;17.00;13.60;;;26.70;70.30;;;;;;4935340;29;20032;-84
2022/08/24 01:54:48;;;;;;;17.33;14.57;;;26.70;70.70;;;;;;4935168;29;20031;-81
2022/08/24 01:57:14;;;;;;;18.35;14.77;;;26.80;69.90;;;;;;4932735;29;20038;-80
2022/08/24 01:59:40;;;;;;;16.85;13.75;;;26.90;69.80;;;;;;4922702;29;20438;-82
2022/08/24 02:02:11;;;;;;;17.38;13.93;;;26.90;69.80;;;;;;4964700;28;20068;-79
2022/08/24 02:04:37;;;;;;;17.98;14.27;;;26.90;69.60;;;;;;4981053;28;20178;-78
2022/08/24 02:07:03;;;;;;;17.42;13.90;;;26.80;69.90;;;;;;4991721;28;20113;-80
2022/08/24 02:09:29;;;;;;;17.17;13.88;;;26.80;69.90;;;;;;4990962;28;20050;-85
2022/08/24 02:11:54;;;;;;;17.58;14.48;;;26.70;69.90;;;;;;4987554;28;20109;-80
2022/08/24 02:14:21;;;;;;;18.38;16.05;;;26.40;71.10;;;;;;4995648;28;20022;-87
2022/08/24 02:16:47;;;;;;;18.58;14.52;;;26.40;70.90;;;;;;4993711;28;20041;-87
2022/08/24 02:19:13;;;;;;;17.38;14.30;;;26.30;71.50;;;;;;4994636;28;20026;-83
2022/08/24 02:21:39;;;;;;;17.20;13.88;;;26.40;71.10;;;;;;4994955;28;20034;-83
2022/08/24 02:24:05;;;;;;;16.98;14.68;;;26.60;70.70;;;;;;4995094;28;20022;-78
2022/08/24 02:26:31;;;;;;;16.70;13.50;;;26.70;70.40;;;;;;4992724;28;20117;-81
2022/08/24 02:28:57;;;;;;;17.85;14.20;;;26.80;70.50;;;;;;4995101;28;20109;-85
2022/08/24 02:31:22;;;;;;;19.63;15.38;;;26.90;69.90;;;;;;4993324;28;20461;-88
2022/08/24 02:33:48;;;;;;;19.05;15.38;;;26.90;69.80;;;;;;4993662;28;20027;-79
2022/08/24 02:36:14;;;;;;;18.88;14.55;;;26.90;70.00;;;;;;4980082;28;20022;-90
2022/08/24 02:38:41;;;;;;;17.40;13.82;;;26.90;70.00;;;;;;4991784;28;20023;-90
2022/08/24 02:41:09;;;;;;;19.60;14.82;;;26.70;70.50;;;;;;4995259;28;20018;-83
2022/08/24 02:43:34;;;;;;;23.92;15.60;;;26.80;70.00;;;;;;4995046;28;20038;-82
2022/08/24 02:46:00;;;;;;;19.98;15.75;;;26.90;69.90;;;;;;4993362;28;20041;-84
2022/08/24 02:48:26;;;;;;;20.58;16.00;;;27.00;69.40;;;;;;4993064;28;20061;-83
2022/08/24 02:50:52;;;;;;;21.70;14.60;;;27.00;69.50;;;;;;4993377;28;20027;-88
2022/08/24 02:53:20;;;;;;;19.33;14.80;;;27.00;69.60;;;;;;4995623;28;20027;-84
2022/08/24 02:55:46;;;;;;;22.58;15.13;;;27.10;69.30;;;;;;4979750;28;20023;-84
2022/08/24 02:58:13;;;;;;;20.23;15.85;;;27.20;69.20;;;;;;4976108;28;20038;-84
2022/08/24 03:00:40;;;;;;;19.02;14.73;;;27.00;69.30;;;;;;4984846;28;20030;-83
2022/08/24 03:03:07;;;;;;;17.70;14.20;;;26.80;69.80;;;;;;4992853;28;20048;-83
2022/08/24 03:05:33;;;;;;;21.55;15.15;;;26.70;70.10;;;;;;4986363;28;20045;-82
2022/08/24 03:07:59;;;;;;;18.85;14.10;;;26.90;69.50;;;;;;4980131;28;20477;-87
2022/08/24 03:10:25;;;;;;;17.83;14.15;;;26.90;69.80;;;;;;4980087;28;20030;-89
2022/08/24 03:12:51;;;;;;;18.00;14.98;;;26.80;70.10;;;;;;4995015;28;20090;-93
2022/08/24 03:15:21;;;;;;;19.48;15.38;;;26.70;69.90;;;;;;4992546;28;20117;-81
2022/08/24 03:17:47;;;;;;;25.33;16.35;;;26.70;70.10;;;;;;4994269;28;20113;-82
2022/08/24 03:20:15;;;;;;;17.13;13.93;;;26.80;70.20;;;;;;4993344;28;20093;-91
2022/08/24 03:22:41;;;;;;;19.48;15.10;;;26.90;69.90;;;;;;4995479;28;20034;-88
2022/08/24 03:25:09;;;;;;;17.55;14.98;;;27.10;69.10;;;;;;4995002;28;20022;-81
2022/08/24 03:27:35;;;;;;;18.48;14.27;;;27.20;68.80;;;;;;4985323;28;20026;-83
2022/08/24 03:30:03;;;;;;;17.85;14.70;;;27.10;69.20;;;;;;4993827;28;20029;-80
2022/08/24 03:32:28;;;;;;;22.17;15.65;;;27.00;69.60;;;;;;4992368;28;20027;-78
2022/08/24 03:34:54;;;;;;;21.08;15.43;;;27.00;69.00;;;;;;4991880;28;20060;-79
2022/08/24 03:37:20;;;;;;;18.52;14.90;;;26.90;69.50;;;;;;4993045;28;20030;-81
2022/08/24 03:39:46;;;;;;;18.10;14.63;;;26.80;69.60;;;;;;4993155;28;20030;-82
2022/08/24 03:42:15;;;;;;;21.70;14.65;;;26.80;69.50;;;;;;4990860;28;20033;-85
2022/08/24 03:44:41;;;;;;;19.63;15.25;;;26.90;69.40;;;;;;4993600;28;20038;-83
2022/08/24 03:47:10;;;;;;;20.75;15.05;;;26.80;69.90;;;;;;4991931;28;20026;-83
2022/08/24 03:49:37;;;;;;;16.95;13.68;;;26.70;70.10;;;;;;4993005;28;20482;-87
2022/08/24 03:52:04;;;;;;;20.25;15.65;;;26.50;70.90;;;;;;4993232;28;20049;-82
2022/08/24 03:54:31;;;;;;;20.88;15.27;;;26.40;70.90;;;;;;4992561;28;20022;-86
2022/08/24 03:57:00;;;;;;;19.77;13.38;;;26.50;70.60;;;;;;4993855;28;20366;-89
2022/08/24 03:59:26;;;;;;;17.58;14.15;;;26.50;70.20;;;;;;4992123;28;20030;-81
2022/08/24 04:01:54;;;;;;;16.90;13.82;;;26.50;70.90;;;;;;4992681;28;20038;-82
2022/08/24 04:04:20;;;;;;;21.60;15.90;;;26.40;70.50;;;;;;4991937;28;20367;-83
2022/08/24 04:06:47;;;;;;;17.83;14.63;;;26.20;71.00;;;;;;4993126;28;20029;-81
2022/08/24 04:09:13;;;;;;;14.30;12.63;;;26.30;71.10;;;;;;4992775;28;20482;-92
2022/08/24 04:11:39;;;;;;;16.10;13.50;;;26.30;71.40;;;;;;4996850;28;20144;-79
2022/08/24 04:14:07;;;;;;;16.38;13.23;;;26.40;71.00;;;;;;4996957;28;20023;-83
2022/08/24 04:16:32;;;;;;;16.55;12.77;;;26.50;70.60;;;;;;4995337;28;20026;-83
2022/08/24 04:18:58;;;;;;;18.77;14.57;;;26.80;69.80;;;;;;4995134;28;20465;-80
2022/08/24 04:21:27;;;;;;;18.90;13.63;;;26.90;69.60;;;;;;4994977;28;20054;-80
2022/08/24 04:23:54;;;;;;;18.52;13.98;;;26.90;69.60;;;;;;4994271;28;20113;-80
2022/08/24 04:26:22;;;;;;;15.55;13.55;;;26.70;70.50;;;;;;4993783;28;20080;-83
2022/08/24 04:28:48;;;;;;;17.52;13.68;;;26.60;71.50;;;;;;4997209;28;20027;-78
2022/08/24 04:31:17;;;;;;;16.52;13.43;;;26.70;70.10;;;;;;4995972;28;20026;-79
2022/08/24 04:33:43;;;;;;;17.35;13.50;;;26.60;70.50;;;;;;4996942;28;20030;-82
2022/08/24 04:36:10;;;;;;;16.17;13.73;;;26.70;70.50;;;;;;4976524;28;20062;-86
2022/08/24 04:38:36;;;;;;;15.00;12.40;;;26.80;70.20;;;;;;4966575;28;20486;-82
2022/08/24 04:41:09;;;;;;;16.80;14.15;;;26.80;70.00;;;;;;4996627;28;20023;-78
2022/08/24 04:43:35;;;;;;;21.30;15.75;;;26.80;70.30;;;;;;4981123;28;20042;-80
2022/08/24 04:46:07;;;;;;;18.60;14.30;;;26.80;70.20;;;;;;4990747;28;20030;-81
2022/08/24 04:48:33;;;;;;;18.02;14.27;;;26.80;70.00;;;;;;4995681;28;20509;-90
2022/08/24 04:51:04;;;;;;;19.95;15.15;;;26.90;70.20;;;;;;4995393;28;20022;-87
2022/08/24 04:53:31;;;;;;;24.75;16.73;;;26.90;70.50;;;;;;4995250;28;20030;-80
2022/08/24 04:55:57;;;;;;;21.02;15.95;;;26.80;70.80;;;;;;4994818;28;20358;-79
2022/08/24 04:58:23;;;;;;;24.38;16.58;;;26.80;71.00;;;;;;4993473;28;20473;-78
2022/08/24 05:00:49;;;;;;;19.67;15.80;;;26.70;70.90;;;;;;4993290;28;20061;-81
2022/08/24 05:03:15;;;;;;;19.00;14.95;;;26.70;71.00;;;;;;4992948;28;20405;-79
2022/08/24 05:05:44;;;;;;;19.60;14.02;;;26.70;70.70;;;;;;4993296;28;20029;-78
2022/08/24 05:08:10;;;;;;;18.75;14.25;;;26.80;70.80;;;;;;4994519;28;20521;-78
2022/08/24 05:10:41;;;;;;;16.10;12.38;;;26.80;70.80;;;;;;4993187;28;20138;-80
2022/08/24 05:13:07;;;;;;;19.85;14.23;;;26.80;70.90;;;;;;4995303;28;20023;-79
2022/08/24 05:15:34;;;;;;;15.23;12.13;;;27.00;70.50;;;;;;4995760;28;20481;-79
2022/08/24 05:18:01;;;;;;;15.70;12.30;;;27.10;70.00;;;;;;4995891;28;20034;-78
2022/08/24 05:20:27;;;;;;;18.75;14.77;;;27.20;69.90;;;;;;4996175;28;20022;-82
2022/08/24 05:22:53;;;;;;;21.23;14.50;;;27.10;70.00;;;;;;4994965;28;20030;-80
2022/08/24 05:25:19;;;;;;;18.42;13.95;;;27.10;69.90;;;;;;4994838;28;20032;-86
2022/08/24 05:27:46;;;;;;;14.57;12.18;;;27.20;70.00;;;;;;4994988;28;20389;-81
2022/08/24 05:30:12;;;;;;;18.17;14.18;;;27.10;69.90;;;;;;4994970;28;20117;-79
2022/08/24 05:32:38;;;;;;;18.48;14.63;;;26.90;70.70;;;;;;4996097;28;20046;-84
2022/08/24 05:35:07;;;;;;;20.42;14.63;;;26.80;70.90;;;;;;4996103;28;20431;-82
2022/08/24 05:37:38;;;;;;;17.00;12.95;;;26.80;70.70;;;;;;4995872;28;20042;-81
2022/08/24 05:40:08;;;;;;;19.40;14.40;;;27.00;70.80;;;;;;4996126;28;20027;-79
2022/08/24 05:42:34;;;;;;;15.82;12.45;;;27.10;69.90;;;;;;4995903;28;20066;-81
2022/08/24 05:45:00;;;;;;;14.63;11.65;;;27.30;70.10;;;;;;4994753;28;20026;-82
2022/08/24 05:47:26;;;;;;;15.88;12.82;;;27.40;69.80;;;;;;4996038;28;20030;-83
2022/08/24 05:49:52;;;;;;;12.50;10.23;;;27.60;69.60;;;;;;4994387;28;20046;-86
2022/08/24 05:52:19;;;;;;;14.35;11.27;;;27.60;69.10;;;;;;4994439;28;20057;-81
2022/08/24 05:54:51;;;;;;;16.67;12.40;;;27.60;70.00;;;;;;4994630;28;20027;-81
2022/08/24 05:57:16;;;;;;;13.88;10.82;;;27.50;69.30;;;;;;4994477;28;20100;-83
2022/08/24 05:59:42;;;;;;;17.63;13.38;;;27.50;69.70;;;;;;4994134;28;20432;-81
2022/08/24 06:02:07;;;;;;;19.30;13.50;;;27.60;69.30;;;;;;4994246;28;20035;-83
2022/08/24 06:04:34;;;;;;;16.75;13.40;;;27.50;69.40;;;;;;4994091;28;20026;-81
2022/08/24 06:06:59;;;;;;;14.15;12.15;;;27.40;69.60;;;;;;4995665;28;20061;-80
2022/08/24 06:09:25;;;;;;;14.77;11.68;;;27.30;70.40;;;;;;4994613;28;20065;-83
2022/08/24 06:11:51;;;;;;;13.65;10.15;;;27.30;70.10;;;;;;4995454;28;20030;-82
2022/08/24 06:14:18;;;;;;;12.68;10.68;;;27.40;70.00;;;;;;4995465;28;20030;-83
2022/08/24 06:16:45;;;;;;;13.38;11.32;;;27.50;69.90;;;;;;4995230;28;20507;-86
2022/08/24 06:19:14;;;;;;;15.30;12.05;;;27.60;70.00;;;;;;4994376;28;20029;-82
2022/08/24 06:21:40;;;;;;;12.82;11.00;;;27.70;69.40;;;;;;4995211;28;20038;-83
2022/08/24 06:24:06;;;;;;;14.45;12.27;;;27.80;69.80;;;;;;4995337;28;20023;-85
2022/08/24 06:29:18;;;;;;;13.82;10.27;;;28.00;69.20;;;;;;4995295;28;20493;-83
2022/08/24 06:31:46;;;;;;;14.93;11.60;;;28.00;69.40;;;;;;4994082;28;20036;-77
2022/08/24 06:34:14;;;;;;;14.20;11.48;;;28.30;69.10;;;;;;4993710;28;20088;-82
2022/08/24 06:36:40;;;;;;;13.32;11.77;;;28.30;68.60;;;;;;4995355;28;20034;-90
2022/08/24 06:39:07;;;;;;;12.27;10.15;;;28.40;68.50;;;;;;4993282;28;20028;-78
2022/08/24 06:41:34;;;;;;;13.27;10.85;;;28.50;68.20;;;;;;4993450;28;20035;-86
2022/08/24 06:44:00;;;;;;;12.93;10.05;;;28.50;68.50;;;;;;4993575;28;20026;-79
2022/08/24 06:46:26;;;;;;;13.05;10.30;;;28.60;68.20;;;;;;4993889;28;20064;-80
2022/08/24 06:48:52;;;;;;;11.80;9.60;;;28.60;68.20;;;;;;4993669;28;20048;-80
2022/08/24 06:51:21;;;;;;;13.10;10.95;;;28.50;68.30;;;;;;4977365;28;20027;-83
2022/08/24 06:53:47;;;;;;;13.18;11.05;;;28.30;68.60;;;;;;4993722;28;20122;-84
2022/08/24 06:56:13;;;;;;;12.75;11.15;;;28.40;68.60;;;;;;4994813;28;20058;-83
2022/08/24 06:58:39;;;;;;;15.20;11.05;;;28.40;68.50;;;;;;4994418;28;20046;-82
2022/08/24 07:01:14;;;;;;;15.38;11.27;;;28.20;68.20;;;;;;4994943;28;20022;-86
2022/08/24 07:03:40;;;;;;;16.63;10.95;;;28.10;68.80;;;;;;4993440;28;20038;-81
2022/08/24 07:06:07;;;;;;;12.98;10.95;;;28.30;68.90;;;;;;4994839;28;20022;-80
2022/08/24 07:08:33;;;;;;;11.50;9.85;;;28.50;68.80;;;;;;4994534;28;20030;-80
2022/08/24 07:10:59;;;;;;;11.35;9.85;;;28.70;68.30;;;;;;4993960;28;20022;-84
2022/08/24 07:13:25;;;;;;;13.43;10.48;;;28.90;67.70;;;;;;4995281;28;20053;-86
2022/08/24 07:15:52;;;;;;;13.75;10.38;;;29.00;67.70;;;;;;4995388;28;20045;-87
2022/08/24 07:18:19;;;;;;;14.70;10.93;;;29.00;67.60;;;;;;4994067;28;20029;-81
2022/08/24 07:20:46;;;;;;;10.82;9.07;;;29.10;67.60;;;;;;4993467;28;20102;-84
2022/08/24 07:23:13;;;;;;;12.05;9.38;;;29.30;67.60;;;;;;4994369;28;20038;-80
2022/08/24 07:25:40;;;;;;;15.43;9.55;;;29.40;67.30;;;;;;4977959;28;20117;-82
2022/08/24 07:28:07;;;;;;;9.73;8.50;;;29.60;66.80;;;;;;4993837;28;20030;-85
2022/08/24 07:30:33;;;;;;;12.75;9.10;;;29.80;66.70;;;;;;4977780;28;20050;-81
2022/08/24 07:32:59;;;;;;;16.52;10.13;;;29.90;66.20;;;;;;4996091;28;20089;-82
2022/08/24 07:35:26;;;;;;;10.52;8.57;;;29.90;66.10;;;;;;4994531;28;20022;-79
2022/08/24 07:37:53;;;;;;;10.98;8.63;;;29.90;66.30;;;;;;4994020;28;20042;-89
2022/08/24 07:40:20;;;;;;;9.95;8.30;;;29.90;66.20;;;;;;4993510;28;20026;-86
2022/08/24 07:42:49;;;;;;;13.35;9.32;;;29.90;66.50;;;;;;4994851;28;20062;-84
2022/08/24 07:45:15;;;;;;;9.10;8.20;;;30.00;66.60;;;;;;4993551;28;20022;-80
2022/08/24 07:47:42;;;;;;;10.25;8.45;;;30.40;66.20;;;;;;4994574;28;20081;-83
2022/08/24 07:50:08;;;;;;;10.25;7.88;;;30.60;65.50;;;;;;4993909;28;20050;-85
2022/08/24 07:52:34;;;;;;;8.38;7.47;;;30.80;65.10;;;;;;4995170;28;20414;-81
2022/08/24 07:55:00;;;;;;;10.40;8.35;;;30.90;65.40;;;;;;4993443;28;20099;-86
2022/08/24 07:57:26;;;;;;;9.50;7.93;;;31.10;64.80;;;;;;4994695;28;20117;-77
2022/08/24 07:59:52;;;;;;;9.45;8.15;;;31.30;64.10;;;;;;4992883;28;20022;-80
2022/08/24 08:02:17;;;;;;;13.25;8.30;;;31.30;64.10;;;;;;4993421;28;20402;-82
2022/08/24 08:04:43;;;;;;;11.75;8.18;;;31.30;64.10;;;;;;4993037;28;20034;-84
2022/08/24 08:07:09;;;;;;;9.43;6.57;;;31.50;64.20;;;;;;4994519;28;20117;-83
2022/08/24 08:09:38;;;;;;;8.23;7.30;;;31.60;64.00;;;;;;4994058;28;20030;-85
2022/08/24 08:12:05;;;;;;;7.85;6.57;;;31.40;64.10;;;;;;4992869;28;20031;-84
2022/08/24 08:14:31;;;;;;;9.60;7.47;;;31.30;64.20;;;;;;4976905;28;20026;-85
2022/08/24 08:16:59;;;;;;;8.68;7.07;;;31.40;64.60;;;;;;4994225;28;20038;-86
2022/08/24 08:19:25;;;;;;;9.10;6.55;;;31.60;63.90;;;;;;4993489;28;20029;-86
2022/08/24 08:24:38;;;;;;;9.30;7.20;;;31.30;64.20;;;;;;4994699;28;20034;-83
2022/08/24 08:27:04;;;;;;;8.10;6.97;;;31.20;64.60;;;;;;4992446;28;20037;-85
2022/08/24 08:29:32;;;;;;;8.50;7.32;;;31.20;64.80;;;;;;4992619;28;20072;-84
2022/08/24 08:31:58;;;;;;;8.00;6.32;;;31.60;64.40;;;;;;4992778;28;20030;-83
2022/08/24 08:34:23;;;;;;;12.75;7.45;;;31.90;63.30;;;;;;4993703;28;20069;-82
2022/08/24 08:39:47;;;;;;;8.40;6.20;;;32.20;62.60;;;;;;4995662;28;20093;-86
2022/08/24 08:42:26;;;;;;;7.80;6.60;;;31.80;63.10;;;;;;4992116;28;20031;-80
2022/08/24 08:45:02;;;;;;;8.27;6.15;;;31.80;63.90;;;;;;4975613;28;20069;-79
2022/08/24 08:48:00;;;;;;;8.55;6.10;;;32.10;63.30;;;;;;4991969;28;20363;-82
2022/08/24 08:50:54;;;;;;;8.32;6.70;;;32.30;63.30;;;;;;4992069;28;20042;-83
2022/08/24 08:53:48;;;;;;;9.50;6.55;;;32.30;63.10;;;;;;4993240;28;20142;-79
2022/08/24 08:56:47;;;;;;;8.73;6.40;;;32.20;63.20;;;;;;4992490;28;20061;-83
2022/08/24 08:59:57;;;;;;;9.32;7.05;;;32.10;63.50;;;;;;4993784;28;20440;-78
2022/08/24 09:02:32;;;;;;;7.93;6.13;;;32.10;63.70;;;;;;4994802;28;20045;-82
2022/08/24 09:04:58;;;;;;;14.13;7.20;;;32.70;61.80;;;;;;4996299;28;20373;-81
2022/08/24 09:07:26;;;;;;;10.25;6.72;;;32.80;61.70;;;;;;4995224;28;20481;-81
2022/08/24 09:10:01;;;;;;;10.63;6.78;;;32.70;62.60;;;;;;4995122;28;20371;-85
2022/08/24 09:12:57;;;;;;;10.88;7.07;;;33.00;62.30;;;;;;4994603;28;20037;-84
2022/08/24 09:15:43;;;;;;;11.23;7.07;;;33.40;61.70;;;;;;4996032;28;20385;-80
2022/08/24 09:18:36;;;;;;;10.32;6.80;;;33.60;60.20;;;;;;4994728;28;20042;-79
2022/08/24 09:21:20;;;;;;;9.50;7.38;;;33.80;60.00;;;;;;4995738;28;20027;-83
2022/08/24 09:23:55;;;;;;;10.82;6.53;;;34.00;60.70;;;;;;4996048;28;20026;-81
2022/08/24 09:26:54;;;;;;;9.38;6.45;;;34.00;60.30;;;;;;4995725;28;20026;-79
2022/08/24 09:29:46;;;;;;;11.32;7.00;;;33.90;61.00;;;;;;4987281;28;20046;-77
2022/08/24 09:32:30;;;;;;;12.35;6.95;;;33.70;61.20;;;;;;4994888;28;20026;-80
2022/08/24 09:35:09;;;;;;;10.98;6.85;;;33.70;61.50;;;;;;4996359;28;20497;-89
2022/08/24 09:37:50;;;;;;;12.05;7.35;;;33.30;61.80;;;;;;4994433;28;20027;-82
2022/08/24 09:40:35;;;;;;;12.10;7.05;;;33.00;63.60;;;;;;4995559;28;20498;-80
2022/08/24 09:43:15;;;;;;;15.15;6.53;;;33.30;61.90;;;;;;4993954;28;20030;-78
2022/08/24 09:46:00;;;;;;;;;;;33.70;60.20;;;;;;4994344;28;20381;-78
2022/08/24 09:48:35;;;;;;;13.50;7.15;;;33.90;60.50;;;;;;4995253;28;19922;-83
2022/08/24 09:51:19;;;;;;;10.55;6.25;;;33.40;60.60;;;;;;4995302;28;20389;-79
2022/08/24 09:53:58;;;;;;;12.70;7.20;;;33.00;61.00;;;;;;4995665;28;20018;-80
2022/08/24 09:56:58;;;;;;;10.38;6.32;;;33.00;61.40;;;;;;4995232;28;20022;-81
2022/08/24 09:59:52;;;;;;;14.15;6.53;;;33.30;59.80;;;;;;4994158;28;20030;-80
2022/08/24 10:02:38;;;;;;;13.27;6.88;;;33.30;60.10;;;;;;4993933;28;20065;-78
2022/08/24 10:05:29;;;;;;;12.32;6.95;;;33.70;60.30;;;;;;4994283;28;20048;-78
2022/08/24 10:08:11;;;;;;;15.77;6.30;;;34.00;59.10;;;;;;4995289;28;20022;-81
2022/08/24 10:10:49;;;;;;;14.52;6.18;;;34.00;59.60;;;;;;4995392;28;20030;-78
2022/08/24 10:13:39;;;;;;;16.70;7.10;;;33.60;60.30;;;;;;4995608;28;20512;-78
2022/08/24 10:16:26;;;;;;;11.88;6.70;;;33.50;60.40;;;;;;4995006;28;20026;-80
2022/08/24 10:18:54;;;;;;;13.20;6.10;;;33.60;59.80;;;;;;4995451;28;20034;-86
2022/08/24 10:21:38;;;;;;;13.90;6.57;;;33.70;60.20;;;;;;4995917;28;20037;-79
2022/08/24 10:24:25;;;;;;;11.48;10.27;;;32.60;61.70;;;;;;4996050;28;20093;-79
2022/08/24 10:27:35;;;;;;;11.07;6.95;;;32.20;63.20;;;;;;4998625;28;20089;-82
2022/08/24 10:30:18;;;;;;;103.93;93.03;;;32.30;65.60;;;;;;4938646;29;20063;-79
2022/08/24 10:33:10;;;;;;;40.58;30.30;;;32.30;65.60;;;;;;4955348;29;20046;-83
2022/08/24 10:36:06;;;;;;;13.18;7.80;;;32.30;64.70;;;;;;4939986;29;20028;-78
2022/08/24 10:43:32;;;;;;;16.33;9.82;;;32.10;65.50;;;;;;4954006;29;20120;-80
2022/08/24 10:45:10;;;;;;;54.80;45.53;;;32.00;67.20;;;;;;4953264;29;20071;-79
2022/08/24 10:47:36;;;;;;;35.65;28.77;;;32.10;67.60;;;;;;4953477;29;20034;-80
2022/08/24 10:50:10;;;;;;;18.13;12.38;;;32.10;67.00;;;;;;4953572;29;20051;-78
2022/08/24 10:53:01;;;;;;;37.40;31.42;;;31.90;67.20;;;;;;4937415;29;20039;-77
2022/08/24 10:55:30;;;;;;;14.82;8.75;;;31.10;69.20;;;;;;4896125;29;20393;-80
2022/08/24 10:58:04;;;;;;;19.75;10.55;;;31.10;69.40;;;;;;4880383;29;20084;-79
2022/08/24 11:00:30;;;;;;;23.13;20.50;;;31.10;70.10;;;;;;4880655;29;20048;-77
2022/08/24 11:03:07;;;;;;;14.13;9.50;;;30.80;70.40;;;;;;4880338;29;20036;-78
2022/08/24 11:05:46;;;;;;;18.40;9.75;;;30.60;71.30;;;;;;4911158;28;20093;-78
2022/08/24 11:08:26;;;;;;;15.90;10.10;;;30.50;71.20;;;;;;4936676;29;20090;-78
2022/08/24 11:11:21;;;;;;;16.77;11.15;;;30.30;71.30;;;;;;4937173;29;20078;-78
2022/08/24 11:14:14;;;;;;;16.80;10.18;;;30.00;72.90;;;;;;4953783;28;20024;-76
2022/08/24 11:16:43;;;;;;;15.38;10.77;;;29.90;73.60;;;;;;4946858;29;20043;-77
2022/08/24 11:19:30;;;;;;;15.55;11.23;;;29.90;74.20;;;;;;4936614;29;20031;-79
2022/08/24 11:22:00;;;;;;;20.13;10.70;;;30.20;72.80;;;;;;4953098;29;20079;-80
2022/08/24 11:24:45;;;;;;;;;;;30.50;72.40;;;;;;4938262;29;20028;-82
2022/08/24 11:27:29;;;;;;;15.10;10.23;;;30.20;72.20;;;;;;4937537;29;20251;-78
2022/08/24 11:29:58;;;;;;;21.63;12.15;;;29.60;74.00;;;;;;4955692;29;20038;-92
2022/08/24 11:32:44;;;;;;;21.70;12.32;;;29.70;74.30;;;;;;4966980;28;20030;-90
2022/08/24 11:35:31;;;;;;;21.30;13.93;;;30.10;73.00;;;;;;4997272;28;20028;-88
2022/08/24 11:38:14;;;;;;;20.65;13.82;;;30.30;72.70;;;;;;4998104;28;20033;-93
2022/08/24 11:40:42;;;;;;;15.60;11.43;;;30.40;72.70;;;;;;4994319;28;20418;-79
2022/08/24 11:43:26;;;;;;;19.67;12.65;;;30.40;71.80;;;;;;4996164;28;20038;-92
2022/08/24 11:46:27;;;;;;;18.33;13.10;;;30.60;71.30;;;;;;4994615;28;20021;-81
2022/08/24 11:49:11;;;;;;;;;;;30.40;72.50;;;;;;4989532;28;20447;-84
2022/08/24 11:52:03;;;;;;;19.00;12.95;;;30.20;72.40;;;;;;4993351;28;19917;-78
2022/08/24 11:54:51;;;;;;;20.33;13.18;;;30.10;72.80;;;;;;4993643;28;20062;-82
2022/08/24 11:57:47;;;;;;;22.45;13.95;;;29.90;72.50;;;;;;4993782;28;20034;-82
2022/08/24 12:00:22;;;;;;;16.10;11.32;;;30.00;72.40;;;;;;4993396;28;20492;-88
2022/08/24 12:03:26;;;;;;;21.85;14.73;;;29.80;73.30;;;;;;4993426;28;20100;-79
2022/08/24 12:06:12;;;;;;;24.63;17.23;;;29.60;73.90;;;;;;4993929;28;20113;-87
2022/08/24 12:08:45;;;;;;;28.27;19.15;;;28.90;75.90;;;;;;4994181;28;20034;-95
2022/08/24 12:11:43;;;;;;;23.05;16.52;;;28.50;77.20;;;;;;4993890;28;20035;-88
2022/08/24 12:14:27;;;;;;;19.77;13.30;;;28.60;76.40;;;;;;4994077;28;20041;-87
2022/08/24 12:16:56;;;;;;;19.02;14.75;;;28.60;75.50;;;;;;4993841;28;20096;-86
2022/08/24 12:19:33;;;;;;;20.85;15.48;;;28.70;75.80;;;;;;4993446;28;20184;-83
2022/08/24 12:22:04;;;;;;;24.25;17.48;;;28.90;76.00;;;;;;4995213;28;20533;-85
2022/08/24 12:24:44;;;;;;;17.92;14.50;;;29.10;74.80;;;;;;4994539;28;20109;-81
2022/08/24 12:27:19;;;;;;;22.23;15.07;;;29.00;76.10;;;;;;4994596;28;20086;-81
2022/08/24 12:30:02;;;;;;;19.52;15.20;;;29.00;76.00;;;;;;4995801;28;20034;-85
2022/08/24 12:32:56;;;;;;;20.23;15.43;;;29.20;75.60;;;;;;4997805;28;20542;-87
2022/08/24 12:36:00;;;;;;;23.30;15.75;;;29.30;75.00;;;;;;4998103;28;20048;-78
2022/08/24 12:38:40;;;;;;;18.83;14.32;;;29.20;75.20;;;;;;4996980;28;20412;-83
2022/08/24 12:41:35;;;;;;;18.38;12.30;;;29.30;74.90;;;;;;4982221;28;20039;-85
2022/08/24 12:44:13;;;;;;;14.27;9.98;;;29.30;74.40;;;;;;4979633;28;20034;-83
2022/08/24 12:46:43;;;;;;;13.10;9.63;;;29.40;74.10;;;;;;4997275;28;20038;-82
2022/08/24 12:49:12;;;;;;;15.60;9.93;;;29.50;73.80;;;;;;4999915;28;20138;-80
2022/08/24 12:51:45;;;;;;;12.43;9.63;;;29.80;74.00;;;;;;4996331;28;20485;-87
2022/08/24 12:54:16;;;;;;;10.20;7.80;;;29.90;73.40;;;;;;4997213;28;20038;-82
2022/08/24 12:57:09;;;;;;;9.95;6.82;;;29.90;72.60;;;;;;4996771;28;20022;-91
2022/08/24 12:59:46;;;;;;;10.40;7.35;;;30.00;72.10;;;;;;4997365;28;20610;-89
2022/08/24 13:02:18;;;;;;;10.65;7.20;;;30.20;72.30;;;;;;4997083;28;20045;-87
2022/08/24 13:04:56;;;;;;;9.00;7.40;;;30.30;71.70;;;;;;4996327;28;20381;-87
2022/08/24 13:07:28;;;;;;;13.02;7.55;;;30.40;72.70;;;;;;4995736;28;20053;-92
2022/08/24 13:09:57;;;;;;;11.07;7.50;;;30.40;73.10;;;;;;4995825;28;20023;-85
2022/08/24 13:12:40;;;;;;;9.13;7.50;;;30.60;72.60;;;;;;4996042;28;20111;-90